sensor_id;sensor_type;location;lat;lon;timestamp;P1;durP1;ratioP1;P2;durP2;ratioP2
73296;SDS011;61524;50.938;11.396;2024-03-22T00:02:15;8.90;;;4.60;;
73296;SDS011;61524;50.938;11.396;2024-03-22T00:04:41;7.53;;;3.78;;
73296;SDS011;61524;50.938;11.396;2024-03-22T00:07:06;8.85;;;4.40;;
73296;SDS011;61524;50.938;11.396;2024-03-22T00:09:32;7.95;;;4.50;;
73296;SDS011;61524;50.938;11.396;2024-03-22T00:11:58;8.02;;;4.55;;
73296;SDS011;61524;50.938;11.396;2024-03-22T00:14:24;6.60;;;3.80;;
73296;SDS011;61524;50.938;11.396;2024-03-22T00:16:49;7.43;;;4.15;;
73296;SDS011;61524;50.938;11.396;2024-03-22T00:19:15;11.13;;;4.43;;
73296;SDS011;61524;50.938;11.396;2024-03-22T00:21:40;7.72;;;3.95;;
73296;SDS011;61524;50.938;11.396;2024-03-22T00:24:06;7.38;;;3.83;;
73296;SDS011;61524;50.938;11.396;2024-03-22T00:26:31;9.30;;;3.85;;
73296;SDS011;61524;50.938;11.396;2024-03-22T00:28:57;8.38;;;3.63;;
73296;SDS011;61524;50.938;11.396;2024-03-22T00:31:25;8.43;;;3.72;;
73296;SDS011;61524;50.938;11.396;2024-03-22T00:33:51;9.65;;;4.53;;
73296;SDS011;61524;50.938;11.396;2024-03-22T00:36:16;7.28;;;4.18;;
73296;SDS011;61524;50.938;11.396;2024-03-22T00:38:41;10.32;;;4.57;;
73296;SDS011;61524;50.938;11.396;2024-03-22T00:41:07;7.10;;;3.92;;
73296;SDS011;61524;50.938;11.396;2024-03-22T00:43:32;8.55;;;5.00;;
73296;SDS011;61524;50.938;11.396;2024-03-22T00:45:58;7.60;;;3.70;;
73296;SDS011;61524;50.938;11.396;2024-03-22T00:48:24;8.15;;;4.45;;
73296;SDS011;61524;50.938;11.396;2024-03-22T00:50:49;9.18;;;4.63;;
73296;SDS011;61524;50.938;11.396;2024-03-22T00:53:15;7.63;;;3.97;;
73296;SDS011;61524;50.938;11.396;2024-03-22T00:55:40;8.93;;;3.95;;
73296;SDS011;61524;50.938;11.396;2024-03-22T00:58:05;8.75;;;4.00;;
73296;SDS011;61524;50.938;11.396;2024-03-22T01:00:31;7.82;;;4.05;;
73296;SDS011;61524;50.938;11.396;2024-03-22T01:02:56;7.88;;;4.55;;
73296;SDS011;61524;50.938;11.396;2024-03-22T01:05:22;7.20;;;4.18;;
73296;SDS011;61524;50.938;11.396;2024-03-22T01:07:47;9.55;;;4.35;;
73296;SDS011;61524;50.938;11.396;2024-03-22T01:10:13;8.10;;;4.70;;
73296;SDS011;61524;50.938;11.396;2024-03-22T01:12:39;7.53;;;3.97;;
73296;SDS011;61524;50.938;11.396;2024-03-22T01:15:05;8.30;;;3.97;;
73296;SDS011;61524;50.938;11.396;2024-03-22T01:17:32;8.55;;;3.95;;
73296;SDS011;61524;50.938;11.396;2024-03-22T01:19:58;7.80;;;5.18;;
73296;SDS011;61524;50.938;11.396;2024-03-22T01:22:24;9.10;;;4.90;;
73296;SDS011;61524;50.938;11.396;2024-03-22T01:24:49;9.20;;;4.13;;
73296;SDS011;61524;50.938;11.396;2024-03-22T01:27:14;7.32;;;4.38;;
73296;SDS011;61524;50.938;11.396;2024-03-22T01:29:40;8.25;;;4.47;;
73296;SDS011;61524;50.938;11.396;2024-03-22T01:32:05;8.57;;;3.80;;
73296;SDS011;61524;50.938;11.396;2024-03-22T01:34:31;9.48;;;4.28;;
73296;SDS011;61524;50.938;11.396;2024-03-22T01:36:57;7.82;;;4.55;;
73296;SDS011;61524;50.938;11.396;2024-03-22T01:39:23;10.75;;;4.35;;
73296;SDS011;61524;50.938;11.396;2024-03-22T01:41:49;8.82;;;4.07;;
73296;SDS011;61524;50.938;11.396;2024-03-22T01:44:18;7.40;;;4.43;;
73296;SDS011;61524;50.938;11.396;2024-03-22T01:46:44;9.63;;;5.20;;
73296;SDS011;61524;50.938;11.396;2024-03-22T01:49:11;11.15;;;5.07;;
73296;SDS011;61524;50.938;11.396;2024-03-22T01:51:41;8.55;;;4.70;;
73296;SDS011;61524;50.938;11.396;2024-03-22T01:54:10;10.25;;;5.22;;
73296;SDS011;61524;50.938;11.396;2024-03-22T01:56:39;9.68;;;4.03;;
73296;SDS011;61524;50.938;11.396;2024-03-22T01:59:05;10.05;;;5.10;;
73296;SDS011;61524;50.938;11.396;2024-03-22T02:01:31;9.20;;;5.05;;
73296;SDS011;61524;50.938;11.396;2024-03-22T02:03:57;8.48;;;4.78;;
73296;SDS011;61524;50.938;11.396;2024-03-22T02:06:22;7.30;;;4.30;;
73296;SDS011;61524;50.938;11.396;2024-03-22T02:08:48;7.97;;;5.55;;
73296;SDS011;61524;50.938;11.396;2024-03-22T02:11:13;10.50;;;4.95;;
73296;SDS011;61524;50.938;11.396;2024-03-22T02:13:39;8.60;;;4.07;;
73296;SDS011;61524;50.938;11.396;2024-03-22T02:16:04;9.73;;;5.00;;
73296;SDS011;61524;50.938;11.396;2024-03-22T02:18:30;9.50;;;4.90;;
73296;SDS011;61524;50.938;11.396;2024-03-22T02:20:59;10.27;;;4.88;;
73296;SDS011;61524;50.938;11.396;2024-03-22T02:26:00;9.48;;;4.32;;
73296;SDS011;61524;50.938;11.396;2024-03-22T02:28:26;7.13;;;4.10;;
73296;SDS011;61524;50.938;11.396;2024-03-22T02:30:51;8.60;;;4.55;;
73296;SDS011;61524;50.938;11.396;2024-03-22T02:33:17;7.50;;;4.60;;
73296;SDS011;61524;50.938;11.396;2024-03-22T02:35:43;7.68;;;4.30;;
73296;SDS011;61524;50.938;11.396;2024-03-22T02:38:08;7.95;;;5.30;;
73296;SDS011;61524;50.938;11.396;2024-03-22T02:40:34;7.88;;;4.30;;
73296;SDS011;61524;50.938;11.396;2024-03-22T02:42:59;8.15;;;4.38;;
73296;SDS011;61524;50.938;11.396;2024-03-22T02:45:25;7.82;;;4.05;;
73296;SDS011;61524;50.938;11.396;2024-03-22T02:47:52;8.23;;;4.10;;
73296;SDS011;61524;50.938;11.396;2024-03-22T02:50:17;8.40;;;4.72;;
73296;SDS011;61524;50.938;11.396;2024-03-22T02:52:43;9.40;;;4.20;;
73296;SDS011;61524;50.938;11.396;2024-03-22T02:55:08;12.75;;;4.72;;
73296;SDS011;61524;50.938;11.396;2024-03-22T02:57:33;11.30;;;4.18;;
73296;SDS011;61524;50.938;11.396;2024-03-22T03:00:02;10.15;;;5.43;;
73296;SDS011;61524;50.938;11.396;2024-03-22T03:02:28;7.63;;;4.22;;
73296;SDS011;61524;50.938;11.396;2024-03-22T03:04:54;7.65;;;4.00;;
73296;SDS011;61524;50.938;11.396;2024-03-22T03:07:19;8.98;;;4.45;;
73296;SDS011;61524;50.938;11.396;2024-03-22T03:09:44;7.53;;;4.13;;
73296;SDS011;61524;50.938;11.396;2024-03-22T03:12:10;6.82;;;3.60;;
73296;SDS011;61524;50.938;11.396;2024-03-22T03:14:35;7.18;;;4.45;;
73296;SDS011;61524;50.938;11.396;2024-03-22T03:17:01;7.75;;;4.22;;
73296;SDS011;61524;50.938;11.396;2024-03-22T03:19:26;6.53;;;3.58;;
73296;SDS011;61524;50.938;11.396;2024-03-22T03:21:52;9.20;;;4.65;;
73296;SDS011;61524;50.938;11.396;2024-03-22T03:24:17;7.07;;;3.75;;
73296;SDS011;61524;50.938;11.396;2024-03-22T03:26:42;7.07;;;4.20;;
73296;SDS011;61524;50.938;11.396;2024-03-22T03:29:08;7.20;;;3.67;;
73296;SDS011;61524;50.938;11.396;2024-03-22T03:31:34;6.95;;;4.10;;
73296;SDS011;61524;50.938;11.396;2024-03-22T03:34:00;7.20;;;4.03;;
73296;SDS011;61524;50.938;11.396;2024-03-22T03:36:25;9.80;;;4.57;;
73296;SDS011;61524;50.938;11.396;2024-03-22T03:38:51;8.75;;;5.38;;
73296;SDS011;61524;50.938;11.396;2024-03-22T03:41:16;8.00;;;4.30;;
73296;SDS011;61524;50.938;11.396;2024-03-22T03:43:42;8.48;;;5.25;;
73296;SDS011;61524;50.938;11.396;2024-03-22T03:46:07;9.52;;;4.57;;
73296;SDS011;61524;50.938;11.396;2024-03-22T03:48:32;8.13;;;4.13;;
73296;SDS011;61524;50.938;11.396;2024-03-22T03:50:59;7.55;;;3.97;;
73296;SDS011;61524;50.938;11.396;2024-03-22T03:53:28;7.75;;;3.67;;
73296;SDS011;61524;50.938;11.396;2024-03-22T03:55:54;7.95;;;4.32;;
73296;SDS011;61524;50.938;11.396;2024-03-22T03:58:19;8.00;;;4.38;;
73296;SDS011;61524;50.938;11.396;2024-03-22T04:00:45;8.15;;;4.53;;
73296;SDS011;61524;50.938;11.396;2024-03-22T04:03:10;7.82;;;4.43;;
73296;SDS011;61524;50.938;11.396;2024-03-22T04:05:35;9.57;;;5.03;;
73296;SDS011;61524;50.938;11.396;2024-03-22T04:08:01;8.93;;;4.88;;
73296;SDS011;61524;50.938;11.396;2024-03-22T04:10:26;7.82;;;3.92;;
73296;SDS011;61524;50.938;11.396;2024-03-22T04:12:52;9.05;;;4.15;;
73296;SDS011;61524;50.938;11.396;2024-03-22T04:15:17;7.85;;;4.38;;
73296;SDS011;61524;50.938;11.396;2024-03-22T04:17:43;8.77;;;4.70;;
73296;SDS011;61524;50.938;11.396;2024-03-22T04:20:08;7.00;;;4.53;;
73296;SDS011;61524;50.938;11.396;2024-03-22T04:22:36;8.93;;;4.32;;
73296;SDS011;61524;50.938;11.396;2024-03-22T04:25:01;7.70;;;4.53;;
73296;SDS011;61524;50.938;11.396;2024-03-22T04:27:26;10.05;;;5.82;;
73296;SDS011;61524;50.938;11.396;2024-03-22T04:29:52;7.90;;;3.90;;
73296;SDS011;61524;50.938;11.396;2024-03-22T04:32:17;9.20;;;5.22;;
73296;SDS011;61524;50.938;11.396;2024-03-22T04:34:43;10.82;;;4.43;;
73296;SDS011;61524;50.938;11.396;2024-03-22T04:37:08;8.23;;;4.60;;
73296;SDS011;61524;50.938;11.396;2024-03-22T04:39:35;7.05;;;4.68;;
73296;SDS011;61524;50.938;11.396;2024-03-22T04:42:01;11.45;;;5.65;;
73296;SDS011;61524;50.938;11.396;2024-03-22T04:44:27;7.90;;;4.68;;
73296;SDS011;61524;50.938;11.396;2024-03-22T04:46:52;10.25;;;4.15;;
73296;SDS011;61524;50.938;11.396;2024-03-22T04:49:18;9.48;;;5.03;;
73296;SDS011;61524;50.938;11.396;2024-03-22T04:51:43;9.10;;;5.13;;
73296;SDS011;61524;50.938;11.396;2024-03-22T04:54:09;8.32;;;4.53;;
73296;SDS011;61524;50.938;11.396;2024-03-22T04:56:34;8.00;;;4.47;;
73296;SDS011;61524;50.938;11.396;2024-03-22T04:58:59;9.10;;;4.88;;
73296;SDS011;61524;50.938;11.396;2024-03-22T05:01:25;8.90;;;3.92;;
73296;SDS011;61524;50.938;11.396;2024-03-22T05:03:50;9.25;;;5.32;;
73296;SDS011;61524;50.938;11.396;2024-03-22T05:06:16;9.50;;;4.43;;
73296;SDS011;61524;50.938;11.396;2024-03-22T05:08:41;9.57;;;4.93;;
73296;SDS011;61524;50.938;11.396;2024-03-22T05:11:07;12.38;;;3.83;;
73296;SDS011;61524;50.938;11.396;2024-03-22T05:13:33;7.25;;;4.13;;
73296;SDS011;61524;50.938;11.396;2024-03-22T05:15:58;8.88;;;4.63;;
73296;SDS011;61524;50.938;11.396;2024-03-22T05:18:23;11.23;;;4.18;;
73296;SDS011;61524;50.938;11.396;2024-03-22T05:20:49;10.98;;;4.47;;
73296;SDS011;61524;50.938;11.396;2024-03-22T05:23:15;8.55;;;4.38;;
73296;SDS011;61524;50.938;11.396;2024-03-22T05:25:43;8.57;;;3.55;;
73296;SDS011;61524;50.938;11.396;2024-03-22T05:28:08;9.45;;;5.57;;
73296;SDS011;61524;50.938;11.396;2024-03-22T05:30:34;11.55;;;4.78;;
73296;SDS011;61524;50.938;11.396;2024-03-22T05:32:59;8.23;;;4.53;;
73296;SDS011;61524;50.938;11.396;2024-03-22T05:35:26;7.93;;;4.45;;
73296;SDS011;61524;50.938;11.396;2024-03-22T05:37:52;10.88;;;4.28;;
73296;SDS011;61524;50.938;11.396;2024-03-22T05:40:17;7.60;;;4.70;;
73296;SDS011;61524;50.938;11.396;2024-03-22T05:42:43;8.90;;;4.93;;
73296;SDS011;61524;50.938;11.396;2024-03-22T05:45:08;7.80;;;4.28;;
73296;SDS011;61524;50.938;11.396;2024-03-22T05:47:34;8.32;;;4.90;;
73296;SDS011;61524;50.938;11.396;2024-03-22T05:50:00;8.07;;;3.90;;
73296;SDS011;61524;50.938;11.396;2024-03-22T05:52:26;9.40;;;4.57;;
73296;SDS011;61524;50.938;11.396;2024-03-22T05:54:51;7.68;;;4.20;;
73296;SDS011;61524;50.938;11.396;2024-03-22T05:57:17;9.13;;;4.50;;
73296;SDS011;61524;50.938;11.396;2024-03-22T05:59:42;8.18;;;4.70;;
73296;SDS011;61524;50.938;11.396;2024-03-22T06:02:08;7.93;;;4.38;;
73296;SDS011;61524;50.938;11.396;2024-03-22T06:04:33;10.93;;;6.00;;
73296;SDS011;61524;50.938;11.396;2024-03-22T06:06:59;8.50;;;5.45;;
73296;SDS011;61524;50.938;11.396;2024-03-22T06:09:28;12.25;;;5.15;;
73296;SDS011;61524;50.938;11.396;2024-03-22T06:12:05;10.88;;;4.85;;
73296;SDS011;61524;50.938;11.396;2024-03-22T06:14:31;10.13;;;4.93;;
73296;SDS011;61524;50.938;11.396;2024-03-22T06:16:56;10.20;;;4.78;;
73296;SDS011;61524;50.938;11.396;2024-03-22T06:19:22;11.20;;;6.10;;
73296;SDS011;61524;50.938;11.396;2024-03-22T06:21:48;12.20;;;5.32;;
73296;SDS011;61524;50.938;11.396;2024-03-22T06:24:14;10.02;;;5.57;;
73296;SDS011;61524;50.938;11.396;2024-03-22T06:26:39;11.30;;;5.53;;
73296;SDS011;61524;50.938;11.396;2024-03-22T06:29:05;13.75;;;5.72;;
73296;SDS011;61524;50.938;11.396;2024-03-22T06:31:30;13.27;;;5.75;;
73296;SDS011;61524;50.938;11.396;2024-03-22T06:33:56;14.68;;;6.50;;
73296;SDS011;61524;50.938;11.396;2024-03-22T06:36:27;15.95;;;7.40;;
73296;SDS011;61524;50.938;11.396;2024-03-22T06:38:57;14.52;;;7.70;;
73296;SDS011;61524;50.938;11.396;2024-03-22T06:41:22;16.67;;;6.82;;
73296;SDS011;61524;50.938;11.396;2024-03-22T06:43:48;13.73;;;6.63;;
73296;SDS011;61524;50.938;11.396;2024-03-22T06:46:13;15.10;;;6.65;;
73296;SDS011;61524;50.938;11.396;2024-03-22T06:48:38;14.95;;;7.18;;
73296;SDS011;61524;50.938;11.396;2024-03-22T06:51:04;16.73;;;6.80;;
73296;SDS011;61524;50.938;11.396;2024-03-22T06:53:29;15.20;;;7.15;;
73296;SDS011;61524;50.938;11.396;2024-03-22T06:55:55;13.43;;;7.57;;
73296;SDS011;61524;50.938;11.396;2024-03-22T06:58:20;16.48;;;7.25;;
73296;SDS011;61524;50.938;11.396;2024-03-22T07:00:46;18.98;;;8.07;;
73296;SDS011;61524;50.938;11.396;2024-03-22T07:03:11;13.32;;;6.68;;
73296;SDS011;61524;50.938;11.396;2024-03-22T07:05:37;14.85;;;7.03;;
73296;SDS011;61524;50.938;11.396;2024-03-22T07:08:02;17.13;;;7.97;;
73296;SDS011;61524;50.938;11.396;2024-03-22T07:10:28;17.85;;;7.50;;
73296;SDS011;61524;50.938;11.396;2024-03-22T07:12:56;16.90;;;6.85;;
73296;SDS011;61524;50.938;11.396;2024-03-22T07:15:25;15.65;;;7.18;;
73296;SDS011;61524;50.938;11.396;2024-03-22T07:17:51;16.63;;;7.70;;
73296;SDS011;61524;50.938;11.396;2024-03-22T07:20:16;17.50;;;7.70;;
73296;SDS011;61524;50.938;11.396;2024-03-22T07:22:43;18.08;;;8.27;;
73296;SDS011;61524;50.938;11.396;2024-03-22T07:25:08;17.30;;;8.25;;
73296;SDS011;61524;50.938;11.396;2024-03-22T07:27:36;14.90;;;7.63;;
73296;SDS011;61524;50.938;11.396;2024-03-22T07:30:02;17.50;;;7.25;;
73296;SDS011;61524;50.938;11.396;2024-03-22T07:32:29;16.63;;;8.05;;
73296;SDS011;61524;50.938;11.396;2024-03-22T07:34:55;19.30;;;7.90;;
73296;SDS011;61524;50.938;11.396;2024-03-22T07:37:20;16.00;;;7.47;;
73296;SDS011;61524;50.938;11.396;2024-03-22T07:39:46;17.17;;;7.80;;
73296;SDS011;61524;50.938;11.396;2024-03-22T07:42:11;14.57;;;6.28;;
73296;SDS011;61524;50.938;11.396;2024-03-22T07:44:36;15.15;;;6.28;;
73296;SDS011;61524;50.938;11.396;2024-03-22T07:47:02;16.52;;;6.95;;
73296;SDS011;61524;50.938;11.396;2024-03-22T07:49:27;15.90;;;7.20;;
73296;SDS011;61524;50.938;11.396;2024-03-22T07:51:53;14.00;;;6.22;;
73296;SDS011;61524;50.938;11.396;2024-03-22T07:54:18;14.45;;;6.50;;
73296;SDS011;61524;50.938;11.396;2024-03-22T07:56:44;18.45;;;7.75;;
73296;SDS011;61524;50.938;11.396;2024-03-22T07:59:10;14.75;;;6.18;;
73296;SDS011;61524;50.938;11.396;2024-03-22T08:01:35;13.98;;;6.35;;
73296;SDS011;61524;50.938;11.396;2024-03-22T08:04:01;12.23;;;4.97;;
73296;SDS011;61524;50.938;11.396;2024-03-22T08:06:26;11.88;;;6.10;;
73296;SDS011;61524;50.938;11.396;2024-03-22T08:08:51;13.20;;;5.72;;
73296;SDS011;61524;50.938;11.396;2024-03-22T08:11:17;16.15;;;6.00;;
73296;SDS011;61524;50.938;11.396;2024-03-22T08:13:42;15.10;;;6.60;;
73296;SDS011;61524;50.938;11.396;2024-03-22T08:16:08;14.57;;;6.18;;
73296;SDS011;61524;50.938;11.396;2024-03-22T08:18:33;12.75;;;6.32;;
73296;SDS011;61524;50.938;11.396;2024-03-22T08:20:59;12.63;;;5.95;;
73296;SDS011;61524;50.938;11.396;2024-03-22T08:23:24;11.82;;;6.13;;
73296;SDS011;61524;50.938;11.396;2024-03-22T08:25:50;12.20;;;5.65;;
73296;SDS011;61524;50.938;11.396;2024-03-22T08:28:15;14.30;;;6.43;;
73296;SDS011;61524;50.938;11.396;2024-03-22T08:30:42;15.95;;;6.53;;
73296;SDS011;61524;50.938;11.396;2024-03-22T08:33:07;15.45;;;6.53;;
73296;SDS011;61524;50.938;11.396;2024-03-22T08:35:33;13.43;;;7.00;;
73296;SDS011;61524;50.938;11.396;2024-03-22T08:37:59;13.90;;;6.45;;
73296;SDS011;61524;50.938;11.396;2024-03-22T08:40:24;12.73;;;6.35;;
73296;SDS011;61524;50.938;11.396;2024-03-22T08:42:50;11.90;;;5.90;;
73296;SDS011;61524;50.938;11.396;2024-03-22T08:45:15;11.25;;;5.90;;
73296;SDS011;61524;50.938;11.396;2024-03-22T08:47:41;12.73;;;6.03;;
73296;SDS011;61524;50.938;11.396;2024-03-22T08:50:07;19.35;;;7.97;;
73296;SDS011;61524;50.938;11.396;2024-03-22T08:52:33;15.35;;;6.93;;
73296;SDS011;61524;50.938;11.396;2024-03-22T08:55:00;13.50;;;6.00;;
73296;SDS011;61524;50.938;11.396;2024-03-22T08:57:26;11.43;;;5.43;;
73296;SDS011;61524;50.938;11.396;2024-03-22T08:59:51;12.23;;;6.25;;
73296;SDS011;61524;50.938;11.396;2024-03-22T09:02:17;13.18;;;6.40;;
73296;SDS011;61524;50.938;11.396;2024-03-22T09:04:42;15.27;;;6.50;;
73296;SDS011;61524;50.938;11.396;2024-03-22T09:07:08;13.15;;;5.63;;
73296;SDS011;61524;50.938;11.396;2024-03-22T09:09:33;12.40;;;5.95;;
73296;SDS011;61524;50.938;11.396;2024-03-22T09:11:59;13.68;;;6.03;;
73296;SDS011;61524;50.938;11.396;2024-03-22T09:14:24;13.50;;;6.10;;
73296;SDS011;61524;50.938;11.396;2024-03-22T09:16:50;11.13;;;5.70;;
73296;SDS011;61524;50.938;11.396;2024-03-22T09:19:15;12.65;;;6.18;;
73296;SDS011;61524;50.938;11.396;2024-03-22T09:21:41;11.57;;;5.22;;
73296;SDS011;61524;50.938;11.396;2024-03-22T09:24:07;13.00;;;5.57;;
73296;SDS011;61524;50.938;11.396;2024-03-22T09:26:32;9.88;;;4.93;;
73296;SDS011;61524;50.938;11.396;2024-03-22T09:28:58;14.77;;;6.13;;
73296;SDS011;61524;50.938;11.396;2024-03-22T09:31:24;13.57;;;5.85;;
73296;SDS011;61524;50.938;11.396;2024-03-22T09:33:49;8.43;;;4.70;;
73296;SDS011;61524;50.938;11.396;2024-03-22T09:36:15;10.30;;;4.50;;
73296;SDS011;61524;50.938;11.396;2024-03-22T09:38:40;11.23;;;5.40;;
73296;SDS011;61524;50.938;11.396;2024-03-22T09:41:06;12.45;;;5.22;;
73296;SDS011;61524;50.938;11.396;2024-03-22T09:43:32;9.85;;;4.97;;
73296;SDS011;61524;50.938;11.396;2024-03-22T09:45:59;13.48;;;5.25;;
73296;SDS011;61524;50.938;11.396;2024-03-22T09:48:25;13.52;;;6.03;;
73296;SDS011;61524;50.938;11.396;2024-03-22T09:50:52;10.65;;;4.65;;
73296;SDS011;61524;50.938;11.396;2024-03-22T09:53:19;10.88;;;5.55;;
73296;SDS011;61524;50.938;11.396;2024-03-22T09:55:46;11.27;;;5.28;;
73296;SDS011;61524;50.938;11.396;2024-03-22T10:00:38;12.05;;;5.57;;
73296;SDS011;61524;50.938;11.396;2024-03-22T10:03:04;11.50;;;5.38;;
73296;SDS011;61524;50.938;11.396;2024-03-22T10:05:30;10.02;;;4.90;;
73296;SDS011;61524;50.938;11.396;2024-03-22T10:07:56;14.10;;;5.90;;
73296;SDS011;61524;50.938;11.396;2024-03-22T10:10:22;10.75;;;5.43;;
73296;SDS011;61524;50.938;11.396;2024-03-22T10:12:48;10.57;;;5.78;;
73296;SDS011;61524;50.938;11.396;2024-03-22T10:15:13;13.88;;;6.18;;
73296;SDS011;61524;50.938;11.396;2024-03-22T10:17:39;12.75;;;5.78;;
73296;SDS011;61524;50.938;11.396;2024-03-22T10:20:06;11.98;;;5.07;;
73296;SDS011;61524;50.938;11.396;2024-03-22T10:22:41;10.93;;;5.32;;
73296;SDS011;61524;50.938;11.396;2024-03-22T10:25:34;12.45;;;5.80;;
73296;SDS011;61524;50.938;11.396;2024-03-22T10:27:59;11.80;;;5.57;;
73296;SDS011;61524;50.938;11.396;2024-03-22T10:30:25;12.20;;;6.40;;
73296;SDS011;61524;50.938;11.396;2024-03-22T10:32:51;12.43;;;6.50;;
73296;SDS011;61524;50.938;11.396;2024-03-22T10:35:17;13.27;;;6.10;;
73296;SDS011;61524;50.938;11.396;2024-03-22T10:37:43;12.88;;;6.75;;
73296;SDS011;61524;50.938;11.396;2024-03-22T10:40:10;12.52;;;6.43;;
73296;SDS011;61524;50.938;11.396;2024-03-22T10:42:37;11.10;;;5.65;;
73296;SDS011;61524;50.938;11.396;2024-03-22T10:45:06;12.02;;;7.32;;
73296;SDS011;61524;50.938;11.396;2024-03-22T10:47:33;12.48;;;6.57;;
73296;SDS011;61524;50.938;11.396;2024-03-22T10:52:32;14.23;;;6.90;;
73296;SDS011;61524;50.938;11.396;2024-03-22T10:55:02;14.32;;;6.05;;
73296;SDS011;61524;50.938;11.396;2024-03-22T10:57:29;11.25;;;6.35;;
73296;SDS011;61524;50.938;11.396;2024-03-22T10:59:55;11.57;;;6.28;;
73296;SDS011;61524;50.938;11.396;2024-03-22T11:02:23;12.88;;;6.20;;
73296;SDS011;61524;50.938;11.396;2024-03-22T11:04:58;12.98;;;6.28;;
73296;SDS011;61524;50.938;11.396;2024-03-22T11:07:28;12.63;;;6.50;;
73296;SDS011;61524;50.938;11.396;2024-03-22T11:09:57;11.52;;;6.43;;
73296;SDS011;61524;50.938;11.396;2024-03-22T11:12:26;15.23;;;7.90;;
73296;SDS011;61524;50.938;11.396;2024-03-22T11:14:53;14.45;;;7.22;;
73296;SDS011;61524;50.938;11.396;2024-03-22T11:17:19;12.60;;;6.53;;
73296;SDS011;61524;50.938;11.396;2024-03-22T11:19:44;13.63;;;7.45;;
73296;SDS011;61524;50.938;11.396;2024-03-22T11:22:10;15.95;;;7.93;;
73296;SDS011;61524;50.938;11.396;2024-03-22T11:27:04;12.95;;;7.43;;
73296;SDS011;61524;50.938;11.396;2024-03-22T11:29:30;14.07;;;7.80;;
73296;SDS011;61524;50.938;11.396;2024-03-22T11:31:55;14.13;;;7.82;;
73296;SDS011;61524;50.938;11.396;2024-03-22T11:34:21;15.48;;;7.47;;
73296;SDS011;61524;50.938;11.396;2024-03-22T11:36:46;17.25;;;10.32;;
73296;SDS011;61524;50.938;11.396;2024-03-22T11:39:14;17.08;;;7.93;;
73296;SDS011;61524;50.938;11.396;2024-03-22T11:41:40;14.77;;;9.13;;
73296;SDS011;61524;50.938;11.396;2024-03-22T11:44:05;16.05;;;9.65;;
73296;SDS011;61524;50.938;11.396;2024-03-22T11:46:31;15.45;;;8.73;;
73296;SDS011;61524;50.938;11.396;2024-03-22T11:48:58;16.50;;;8.38;;
73296;SDS011;61524;50.938;11.396;2024-03-22T11:51:24;17.90;;;9.23;;
73296;SDS011;61524;50.938;11.396;2024-03-22T11:53:53;16.10;;;8.73;;
73296;SDS011;61524;50.938;11.396;2024-03-22T11:56:21;14.75;;;8.25;;
73296;SDS011;61524;50.938;11.396;2024-03-22T11:58:47;15.43;;;9.27;;
73296;SDS011;61524;50.938;11.396;2024-03-22T12:01:22;14.98;;;8.70;;
73296;SDS011;61524;50.938;11.396;2024-03-22T12:03:48;16.55;;;9.07;;
73296;SDS011;61524;50.938;11.396;2024-03-22T12:06:14;17.45;;;8.63;;
73296;SDS011;61524;50.938;11.396;2024-03-22T12:08:40;16.60;;;9.20;;
73296;SDS011;61524;50.938;11.396;2024-03-22T12:11:09;16.10;;;8.13;;
73296;SDS011;61524;50.938;11.396;2024-03-22T12:13:35;16.25;;;8.48;;
73296;SDS011;61524;50.938;11.396;2024-03-22T12:16:02;18.05;;;9.38;;
73296;SDS011;61524;50.938;11.396;2024-03-22T12:18:28;14.75;;;8.35;;
73296;SDS011;61524;50.938;11.396;2024-03-22T12:20:54;14.95;;;8.55;;
73296;SDS011;61524;50.938;11.396;2024-03-22T12:23:19;19.45;;;8.95;;
73296;SDS011;61524;50.938;11.396;2024-03-22T12:25:45;14.02;;;8.85;;
73296;SDS011;61524;50.938;11.396;2024-03-22T12:28:10;13.75;;;8.15;;
73296;SDS011;61524;50.938;11.396;2024-03-22T12:30:36;15.18;;;8.43;;
73296;SDS011;61524;50.938;11.396;2024-03-22T12:33:01;14.38;;;8.63;;
73296;SDS011;61524;50.938;11.396;2024-03-22T12:35:27;14.18;;;7.72;;
73296;SDS011;61524;50.938;11.396;2024-03-22T12:37:52;14.77;;;9.23;;
73296;SDS011;61524;50.938;11.396;2024-03-22T12:40:18;17.52;;;8.35;;
73296;SDS011;61524;50.938;11.396;2024-03-22T12:42:44;14.80;;;7.82;;
73296;SDS011;61524;50.938;11.396;2024-03-22T12:45:09;11.85;;;7.07;;
73296;SDS011;61524;50.938;11.396;2024-03-22T12:47:36;13.18;;;7.20;;
73296;SDS011;61524;50.938;11.396;2024-03-22T12:50:01;14.00;;;7.35;;
73296;SDS011;61524;50.938;11.396;2024-03-22T12:52:27;14.93;;;6.65;;
73296;SDS011;61524;50.938;11.396;2024-03-22T12:54:52;11.25;;;6.20;;
73296;SDS011;61524;50.938;11.396;2024-03-22T12:57:17;11.50;;;6.47;;
73296;SDS011;61524;50.938;11.396;2024-03-22T12:59:43;16.52;;;7.63;;
73296;SDS011;61524;50.938;11.396;2024-03-22T13:02:10;11.48;;;6.53;;
73296;SDS011;61524;50.938;11.396;2024-03-22T13:04:36;10.32;;;6.45;;
73296;SDS011;61524;50.938;11.396;2024-03-22T13:07:01;13.85;;;7.07;;
73296;SDS011;61524;50.938;11.396;2024-03-22T13:09:27;11.88;;;5.90;;
73296;SDS011;61524;50.938;11.396;2024-03-22T13:11:52;11.60;;;6.22;;
73296;SDS011;61524;50.938;11.396;2024-03-22T13:14:18;10.15;;;5.47;;
73296;SDS011;61524;50.938;11.396;2024-03-22T13:16:45;11.35;;;5.53;;
73296;SDS011;61524;50.938;11.396;2024-03-22T13:19:11;12.18;;;6.45;;
73296;SDS011;61524;50.938;11.396;2024-03-22T13:21:38;10.77;;;5.70;;
73296;SDS011;61524;50.938;11.396;2024-03-22T13:24:04;10.07;;;5.47;;
73296;SDS011;61524;50.938;11.396;2024-03-22T13:26:29;10.82;;;5.97;;
73296;SDS011;61524;50.938;11.396;2024-03-22T13:28:55;11.18;;;6.18;;
73296;SDS011;61524;50.938;11.396;2024-03-22T13:31:21;9.90;;;5.68;;
73296;SDS011;61524;50.938;11.396;2024-03-22T13:33:46;10.48;;;5.40;;
73296;SDS011;61524;50.938;11.396;2024-03-22T13:36:12;11.00;;;5.40;;
73296;SDS011;61524;50.938;11.396;2024-03-22T13:38:38;10.95;;;5.70;;
73296;SDS011;61524;50.938;11.396;2024-03-22T13:41:03;11.05;;;5.38;;
73296;SDS011;61524;50.938;11.396;2024-03-22T13:43:31;10.95;;;5.50;;
73296;SDS011;61524;50.938;11.396;2024-03-22T13:45:56;10.05;;;5.57;;
73296;SDS011;61524;50.938;11.396;2024-03-22T13:48:23;10.43;;;5.32;;
73296;SDS011;61524;50.938;11.396;2024-03-22T13:50:58;9.40;;;5.55;;
73296;SDS011;61524;50.938;11.396;2024-03-22T13:53:24;9.70;;;5.75;;
73296;SDS011;61524;50.938;11.396;2024-03-22T13:55:50;10.60;;;5.45;;
73296;SDS011;61524;50.938;11.396;2024-03-22T13:58:17;9.38;;;5.13;;
73296;SDS011;61524;50.938;11.396;2024-03-22T14:00:43;10.68;;;6.05;;
73296;SDS011;61524;50.938;11.396;2024-03-22T14:03:09;11.68;;;5.13;;
73296;SDS011;61524;50.938;11.396;2024-03-22T14:05:35;11.85;;;4.97;;
73296;SDS011;61524;50.938;11.396;2024-03-22T14:08:00;11.55;;;6.10;;
73296;SDS011;61524;50.938;11.396;2024-03-22T14:10:26;15.20;;;5.82;;
73296;SDS011;61524;50.938;11.396;2024-03-22T14:12:56;11.20;;;6.30;;
73296;SDS011;61524;50.938;11.396;2024-03-22T14:15:22;11.65;;;5.88;;
73296;SDS011;61524;50.938;11.396;2024-03-22T14:17:50;11.38;;;6.28;;
73296;SDS011;61524;50.938;11.396;2024-03-22T14:20:15;11.90;;;6.53;;
73296;SDS011;61524;50.938;11.396;2024-03-22T14:22:42;11.95;;;6.00;;
73296;SDS011;61524;50.938;11.396;2024-03-22T14:25:08;11.23;;;6.05;;
73296;SDS011;61524;50.938;11.396;2024-03-22T14:27:35;12.45;;;6.50;;
73296;SDS011;61524;50.938;11.396;2024-03-22T14:30:01;11.48;;;6.55;;